createdAt,value
2022-10-17T00:00:31.044Z,13.83
2022-10-17T00:03:18.549Z,22.65
2022-10-17T00:06:11.331Z,18.32
2022-10-17T00:08:58.729Z,17.37
2022-10-17T00:11:45.624Z,18.42
2022-10-17T00:14:33.038Z,17.12
2022-10-17T00:17:20.432Z,19.05
2022-10-17T00:20:08.566Z,21.17
2022-10-17T00:22:55.910Z,17.20
2022-10-17T00:25:43.542Z,18.25
2022-10-17T00:28:30.923Z,21.57
2022-10-17T00:31:19.915Z,14.13
2022-10-17T00:34:06.940Z,20.27
2022-10-17T00:36:54.315Z,18.70
2022-10-17T00:39:41.452Z,15.53
2022-10-17T00:42:29.274Z,14.47
2022-10-17T00:45:22.601Z,22.40
2022-10-17T00:48:11.920Z,22.13
2022-10-17T00:51:00.684Z,17.30
2022-10-17T00:53:48.217Z,17.55
2022-10-17T00:56:36.048Z,23.73
2022-10-17T00:59:24.179Z,18.05
2022-10-17T01:02:15.282Z,18.25
2022-10-17T01:05:03.273Z,20.00
2022-10-17T01:08:11.195Z,21.23
2022-10-17T01:11:13.100Z,17.52
2022-10-17T01:14:09.144Z,23.38
2022-10-17T01:17:16.112Z,17.60
2022-10-17T01:20:24.861Z,20.77
2022-10-17T01:23:49.734Z,18.23
2022-10-17T01:27:09.751Z,14.58
2022-10-17T01:30:34.835Z,18.40
2022-10-17T01:33:30.980Z,14.87
2022-10-17T01:36:43.757Z,18.17
2022-10-17T01:39:52.551Z,20.52
2022-10-17T01:42:48.504Z,20.95
2022-10-17T01:45:38.688Z,19.20
2022-10-17T01:48:28.910Z,21.17
2022-10-17T01:51:25.106Z,18.85
2022-10-17T01:54:18.128Z,18.10
2022-10-17T01:57:08.746Z,18.92
2022-10-17T01:59:57.660Z,18.12
2022-10-17T02:02:47.782Z,23.15
2022-10-17T02:05:38.248Z,20.52
2022-10-17T02:08:34.470Z,24.45
2022-10-17T02:11:27.669Z,19.77
2022-10-17T02:14:34.357Z,20.72
2022-10-17T02:17:36.770Z,21.30
2022-10-17T02:20:38.637Z,23.60
2022-10-17T02:23:38.076Z,15.20
2022-10-17T02:26:28.618Z,22.48
2022-10-17T02:29:21.665Z,22.67
2022-10-17T02:32:12.268Z,17.73
2022-10-17T02:35:03.077Z,16.95
2022-10-17T02:37:51.960Z,24.55
2022-10-17T02:40:41.539Z,17.15
2022-10-17T02:43:29.617Z,25.27
2022-10-17T02:46:22.426Z,18.60
2022-10-17T02:49:31.251Z,20.23
2022-10-17T02:52:42.495Z,20.95
2022-10-17T02:55:35.945Z,21.77
2022-10-17T02:58:26.185Z,15.70
2022-10-17T03:01:14.569Z,19.55
2022-10-17T03:04:14.067Z,18.77
2022-10-17T03:07:01.660Z,21.82
2022-10-17T03:09:49.044Z,20.20
2022-10-17T03:12:36.476Z,21.42
2022-10-17T03:15:23.679Z,21.85
2022-10-17T03:18:10.935Z,19.55
2022-10-17T03:20:58.209Z,16.73
2022-10-17T03:23:45.584Z,29.05
2022-10-17T03:26:33.048Z,14.85
2022-10-17T03:29:20.341Z,22.00
2022-10-17T03:32:08.548Z,18.70
2022-10-17T03:34:55.766Z,18.35
2022-10-17T03:37:42.986Z,17.80
2022-10-17T03:40:30.546Z,16.80
2022-10-17T03:43:17.704Z,15.58
2022-10-17T03:46:05.242Z,19.40
2022-10-17T03:48:52.536Z,24.32
2022-10-17T03:51:39.916Z,21.82
2022-10-17T03:54:27.132Z,21.02
2022-10-17T03:57:14.246Z,25.17
2022-10-17T04:00:01.570Z,23.98
2022-10-17T04:02:48.978Z,19.77
2022-10-17T04:05:36.338Z,17.37
2022-10-17T04:08:24.029Z,18.00
2022-10-17T04:11:14.611Z,20.50
2022-10-17T04:14:02.017Z,19.35
2022-10-17T04:16:49.140Z,22.00
2022-10-17T04:19:36.574Z,17.00
2022-10-17T04:22:23.775Z,19.25
2022-10-17T04:25:11.200Z,20.85
2022-10-17T04:27:58.332Z,16.00
2022-10-17T04:30:45.888Z,24.45
2022-10-17T04:33:34.123Z,15.83
2022-10-17T04:36:23.295Z,19.37
2022-10-17T04:39:11.630Z,20.23
2022-10-17T04:41:59.050Z,25.32
2022-10-17T04:44:46.390Z,18.27
2022-10-17T04:47:33.557Z,19.40
2022-10-17T04:50:21.013Z,20.08
2022-10-17T04:53:08.469Z,16.70
2022-10-17T04:55:56.087Z,17.40
2022-10-17T04:58:45.038Z,20.50
2022-10-17T05:01:32.536Z,20.23
2022-10-17T05:04:22.413Z,22.62
2022-10-17T05:07:08.802Z,21.55
2022-10-17T05:09:55.996Z,21.73
2022-10-17T05:12:43.291Z,20.82
2022-10-17T05:15:30.516Z,21.85
2022-10-17T05:18:17.852Z,20.25
2022-10-17T05:21:05.697Z,19.77
2022-10-17T05:23:53.790Z,23.52
2022-10-17T05:26:40.975Z,17.42
2022-10-17T05:29:28.220Z,23.12
2022-10-17T05:32:17.021Z,19.35
2022-10-17T05:35:04.628Z,25.40
2022-10-17T05:37:51.657Z,23.27
2022-10-17T05:40:39.326Z,22.07
2022-10-17T05:43:27.160Z,21.15
2022-10-17T05:46:14.020Z,20.70
2022-10-17T05:49:01.511Z,39.65
2022-10-17T05:51:49.127Z,20.27
2022-10-17T05:54:36.692Z,24.23
2022-10-17T05:57:26.367Z,23.18
2022-10-17T06:00:14.402Z,29.35
2022-10-17T06:03:01.884Z,28.35
2022-10-17T06:05:49.436Z,29.00
2022-10-17T06:08:36.916Z,29.72
2022-10-17T06:11:24.104Z,32.42
2022-10-17T06:14:11.467Z,28.20
2022-10-17T06:16:59.149Z,30.32
2022-10-17T06:19:46.420Z,29.23
2022-10-17T06:22:33.876Z,24.82
2022-10-17T06:25:21.229Z,27.27
2022-10-17T06:28:08.600Z,25.88
2022-10-17T06:30:56.364Z,31.77
2022-10-17T06:33:44.815Z,28.62
2022-10-17T06:36:32.208Z,25.68
2022-10-17T06:39:19.559Z,22.22
2022-10-17T06:42:07.009Z,27.05
2022-10-17T06:44:54.641Z,20.50
2022-10-17T06:47:41.987Z,26.87
2022-10-17T06:50:29.594Z,28.07
2022-10-17T06:53:17.022Z,28.62
2022-10-17T06:56:05.037Z,24.02
2022-10-17T06:58:53.084Z,22.90
2022-10-17T07:01:43.082Z,22.87
2022-10-17T07:04:29.475Z,20.43
2022-10-17T07:07:17.000Z,17.92
2022-10-17T07:10:06.209Z,16.27
2022-10-17T07:12:53.472Z,22.15
2022-10-17T07:15:41.012Z,24.10
2022-10-17T07:18:28.546Z,20.88
2022-10-17T07:21:16.065Z,20.48
2022-10-17T07:24:03.649Z,19.32
2022-10-17T07:26:51.033Z,18.92
2022-10-17T07:29:38.544Z,29.67
2022-10-17T07:32:25.984Z,23.30
2022-10-17T07:35:13.682Z,21.07
2022-10-17T07:38:01.080Z,18.20
2022-10-17T07:40:51.607Z,15.30
2022-10-17T07:43:39.106Z,13.20
2022-10-17T07:46:26.260Z,15.48
2022-10-17T07:49:13.916Z,16.60
2022-10-17T07:52:01.159Z,18.12
2022-10-17T07:54:48.361Z,15.72
2022-10-17T07:57:35.879Z,14.28
2022-10-17T08:00:23.389Z,11.38
2022-10-17T08:03:11.928Z,13.22
2022-10-17T08:06:03.237Z,14.28
2022-10-17T08:08:50.596Z,12.68
2022-10-17T08:11:38.095Z,10.72
2022-10-17T08:14:25.604Z,11.75
2022-10-17T08:17:12.943Z,12.70
2022-10-17T08:20:00.501Z,11.00
2022-10-17T08:22:53.458Z,15.28
2022-10-17T08:25:40.784Z,13.70
2022-10-17T08:28:28.508Z,15.08
2022-10-17T08:31:21.241Z,13.00
2022-10-17T08:34:08.506Z,12.60
2022-10-17T08:36:55.695Z,10.70
2022-10-17T08:39:43.837Z,10.40
2022-10-17T08:42:46.454Z,11.05
2022-10-17T08:45:43.163Z,8.25
2022-10-17T08:48:36.354Z,6.60
2022-10-17T08:51:29.622Z,8.08
2022-10-17T08:54:19.820Z,9.73
2022-10-17T08:57:29.150Z,11.38
2022-10-17T09:00:20.044Z,9.58
2022-10-17T09:03:32.068Z,10.60
2022-10-17T09:06:23.970Z,11.15
2022-10-17T09:09:34.087Z,8.08
2022-10-17T09:12:33.108Z,10.15
2022-10-17T09:15:27.532Z,12.03
2022-10-17T09:18:22.155Z,10.93
2022-10-17T09:21:21.436Z,10.75
2022-10-17T09:24:17.729Z,15.80
2022-10-17T09:27:06.579Z,8.38
2022-10-17T09:30:27.047Z,7.22
2022-10-17T09:33:34.765Z,9.10
2022-10-17T09:36:24.084Z,7.75
2022-10-17T09:39:20.474Z,9.93
2022-10-17T09:42:09.487Z,7.90
2022-10-17T09:45:05.255Z,9.15
2022-10-17T09:48:00.943Z,6.28
2022-10-17T09:50:57.810Z,7.03
2022-10-17T09:53:43.198Z,11.40
2022-10-17T09:56:30.535Z,6.60
2022-10-17T09:59:20.747Z,8.45
2022-10-17T10:02:22.939Z,8.43
2022-10-17T10:05:19.861Z,8.13
2022-10-17T10:08:18.517Z,15.25
2022-10-17T10:11:13.510Z,13.00
2022-10-17T10:14:00.424Z,12.55
2022-10-17T10:16:49.887Z,4.92
2022-10-17T10:19:39.102Z,7.75
2022-10-17T10:22:28.053Z,6.35
2022-10-17T10:25:18.920Z,10.05
2022-10-17T10:28:11.940Z,4.75
2022-10-17T10:31:02.429Z,7.05
2022-10-17T10:33:52.136Z,9.70
2022-10-17T10:36:47.886Z,8.50
2022-10-17T10:39:38.216Z,12.40
2022-10-17T10:42:28.803Z,5.90
2022-10-17T10:48:31.925Z,8.75
2022-10-17T10:51:24.517Z,15.28
2022-10-17T10:54:18.065Z,18.32
2022-10-17T10:57:08.575Z,9.23
2022-10-17T11:00:12.518Z,6.53
2022-10-17T11:03:03.906Z,4.42
2022-10-17T11:05:54.419Z,5.45
2022-10-17T11:08:53.665Z,13.25
2022-10-17T11:11:46.510Z,9.40
2022-10-17T11:14:39.128Z,9.18
2022-10-17T11:17:50.792Z,4.67
2022-10-17T11:20:47.056Z,10.05
2022-10-17T11:23:37.463Z,11.15
2022-10-17T11:26:31.557Z,7.53
2022-10-17T11:29:19.213Z,6.28
2022-10-17T11:32:12.564Z,7.47
2022-10-17T11:35:02.959Z,5.45
2022-10-17T11:37:59.099Z,9.20
2022-10-17T11:40:49.445Z,4.62
2022-10-17T11:43:48.773Z,7.60
2022-10-17T11:46:37.546Z,5.60
2022-10-17T11:52:44.305Z,4.85
2022-10-17T11:55:23.294Z,7.33
2022-10-17T11:58:39.677Z,4.70
2022-10-17T12:01:42.012Z,5.65
2022-10-17T12:04:56.566Z,8.58
2022-10-17T12:07:59.035Z,5.42
2022-10-17T12:11:07.781Z,6.08
2022-10-17T12:13:56.747Z,8.98
2022-10-17T12:16:45.699Z,8.90
2022-10-17T12:19:35.837Z,7.72
2022-10-17T12:22:27.155Z,10.25
2022-10-17T12:25:20.588Z,6.42
2022-10-17T12:28:36.522Z,10.85
2022-10-17T12:31:29.886Z,8.33
2022-10-17T12:34:18.889Z,12.47
2022-10-17T12:37:06.120Z,5.37
2022-10-17T12:39:53.392Z,9.20
2022-10-17T12:42:49.627Z,6.35
2022-10-17T12:45:53.999Z,7.33
2022-10-17T12:48:44.664Z,7.22
2022-10-17T12:51:41.546Z,5.95
2022-10-17T12:54:37.938Z,5.25
2022-10-17T12:57:30.297Z,6.03
2022-10-17T13:03:25.878Z,4.92
2022-10-17T13:06:20.812Z,5.15
2022-10-17T13:09:23.841Z,10.43
2022-10-17T13:12:14.426Z,4.40
2022-10-17T13:15:11.889Z,9.13
2022-10-17T13:18:02.089Z,4.17
2022-10-17T13:21:05.536Z,5.33
2022-10-17T13:23:56.101Z,7.70
2022-10-17T13:26:49.691Z,7.55
2022-10-17T13:29:39.063Z,5.22
2022-10-17T13:32:29.333Z,5.25
2022-10-17T13:38:24.225Z,8.18
2022-10-17T13:44:06.886Z,7.45
2022-10-17T13:46:54.743Z,8.30
2022-10-17T13:49:44.271Z,10.32
2022-10-17T13:52:32.271Z,6.17
2022-10-17T13:55:21.708Z,7.12
2022-10-17T13:58:17.993Z,5.37
2022-10-17T14:01:05.821Z,6.12
2022-10-17T14:04:07.117Z,7.45
2022-10-17T14:06:47.580Z,4.85
2022-10-17T14:09:33.799Z,7.03
2022-10-17T14:12:23.183Z,7.80
2022-10-17T14:15:13.533Z,8.10
2022-10-17T14:18:07.750Z,6.08
2022-10-17T14:21:33.956Z,8.95
2022-10-17T14:23:45.178Z,8.85
2022-10-17T14:26:34.145Z,6.15
2022-10-17T14:29:33.598Z,4.75
2022-10-17T14:32:21.871Z,3.40
2022-10-17T14:35:30.689Z,7.65
2022-10-17T14:38:03.717Z,7.78
2022-10-17T14:41:00.372Z,5.12
2022-10-17T14:43:42.671Z,4.37
2022-10-17T14:46:30.367Z,5.22
2022-10-17T14:49:24.977Z,10.45
2022-10-17T14:52:17.712Z,15.20
2022-10-17T14:55:14.595Z,11.15
2022-10-17T14:58:02.764Z,3.27
2022-10-17T15:00:50.288Z,10.48
2022-10-17T15:03:37.540Z,5.55
2022-10-17T15:06:35.454Z,7.87
2022-10-17T15:09:23.786Z,6.00
2022-10-17T15:12:17.376Z,8.93
2022-10-17T15:15:04.728Z,7.45
2022-10-17T15:17:51.998Z,7.70
2022-10-17T15:20:40.037Z,6.95
2022-10-17T15:23:27.266Z,8.90
2022-10-17T15:26:27.093Z,8.75
2022-10-17T15:29:17.718Z,8.55
2022-10-17T15:32:05.043Z,5.40
2022-10-17T15:34:52.307Z,6.50
2022-10-17T15:37:39.629Z,6.35
2022-10-17T15:40:29.239Z,6.65
2022-10-17T15:43:19.788Z,3.67
2022-10-17T15:46:05.339Z,6.97
2022-10-17T15:48:53.847Z,13.93
2022-10-17T15:51:41.953Z,10.63
2022-10-17T15:54:29.220Z,11.08
2022-10-17T15:57:22.977Z,7.33
2022-10-17T16:00:31.451Z,8.00
2022-10-17T16:03:18.439Z,6.12
2022-10-17T16:06:08.534Z,5.28
2022-10-17T16:08:55.395Z,7.12
2022-10-17T16:11:44.994Z,10.32
2022-10-17T16:14:33.612Z,16.62
2022-10-17T16:17:20.922Z,8.23
2022-10-17T16:20:09.846Z,7.95
2022-10-17T16:22:58.858Z,6.70
2022-10-17T16:25:45.949Z,6.67
2022-10-17T16:28:33.389Z,9.23
2022-10-17T16:31:29.486Z,7.83
2022-10-17T16:34:17.179Z,7.27
2022-10-17T16:37:04.449Z,9.58
2022-10-17T16:39:53.538Z,14.23
2022-10-17T16:42:41.156Z,11.93
2022-10-17T16:45:28.575Z,9.73
2022-10-17T16:48:17.514Z,15.93
2022-10-17T16:51:04.685Z,8.90
2022-10-17T16:53:54.358Z,11.00
2022-10-17T16:56:42.153Z,11.50
2022-10-17T16:59:29.380Z,8.53
2022-10-17T17:02:18.953Z,8.03
2022-10-17T17:05:05.102Z,16.45
2022-10-17T17:07:52.627Z,10.90
2022-10-17T17:10:43.110Z,6.95
2022-10-17T17:13:30.471Z,10.75
2022-10-17T17:16:22.294Z,15.68
2022-10-17T17:19:13.163Z,15.63
2022-10-17T17:22:00.293Z,11.83
2022-10-17T17:27:34.892Z,9.55
2022-10-17T17:30:22.156Z,13.38
2022-10-17T17:33:09.246Z,13.32
2022-10-17T17:36:01.675Z,7.97
2022-10-17T17:38:50.771Z,11.73
2022-10-17T17:41:38.756Z,6.78
2022-10-17T17:44:25.910Z,11.15
2022-10-17T17:47:13.020Z,19.60
2022-10-17T17:50:00.428Z,13.62
2022-10-17T17:52:49.683Z,8.40
2022-10-17T17:55:37.576Z,12.20
2022-10-17T17:58:24.963Z,10.90
2022-10-17T18:01:17.579Z,6.05
2022-10-17T18:04:08.439Z,15.48
2022-10-17T18:06:55.852Z,14.07
2022-10-17T18:09:42.880Z,13.93
2022-10-17T18:12:30.892Z,8.13
2022-10-17T18:15:18.327Z,10.90
2022-10-17T18:18:05.828Z,13.45
2022-10-17T18:20:54.652Z,8.25
2022-10-17T18:23:44.877Z,13.18
2022-10-17T18:26:32.084Z,12.35
2022-10-17T18:29:20.295Z,7.60
2022-10-17T18:32:07.739Z,9.03
2022-10-17T18:34:55.031Z,7.65
2022-10-17T18:37:42.397Z,15.60
2022-10-17T18:40:29.910Z,10.70
2022-10-17T18:43:17.207Z,10.75
2022-10-17T18:46:08.597Z,6.53
2022-10-17T18:48:55.849Z,13.13
2022-10-17T18:51:43.672Z,12.60
2022-10-17T18:54:32.532Z,11.88
2022-10-17T18:57:21.516Z,16.17
2022-10-17T19:00:09.594Z,20.70
2022-10-17T19:02:56.780Z,13.58
2022-10-17T19:05:46.231Z,15.53
2022-10-17T19:08:34.028Z,10.90
2022-10-17T19:11:26.268Z,9.70
2022-10-17T19:14:14.382Z,12.82
2022-10-17T19:17:02.355Z,11.38
2022-10-17T19:19:51.614Z,13.43
2022-10-17T19:22:38.825Z,16.50
2022-10-17T19:25:26.390Z,13.35
2022-10-17T19:28:13.560Z,11.35
2022-10-17T19:31:01.174Z,14.53
2022-10-17T19:33:50.788Z,15.50
2022-10-17T19:36:38.077Z,20.70
2022-10-17T19:39:26.456Z,14.70
2022-10-17T19:42:13.818Z,11.20
2022-10-17T19:45:02.396Z,10.48
2022-10-17T19:47:49.480Z,13.48
2022-10-17T19:50:39.195Z,12.30
2022-10-17T19:53:27.958Z,11.88
2022-10-17T19:56:16.807Z,12.50
2022-10-17T19:59:04.411Z,15.00
2022-10-17T20:01:51.843Z,18.65
2022-10-17T20:04:49.560Z,16.70
2022-10-17T20:07:28.377Z,13.62
2022-10-17T20:10:15.778Z,13.18
2022-10-17T20:13:03.360Z,10.38
2022-10-17T20:15:58.084Z,14.53
2022-10-17T20:18:46.161Z,13.43
2022-10-17T20:21:38.988Z,11.00
2022-10-17T20:24:26.231Z,12.50
2022-10-17T20:27:13.475Z,18.62
2022-10-17T20:30:02.369Z,12.47
2022-10-17T20:32:54.774Z,10.35
2022-10-17T20:38:30.986Z,16.67
2022-10-17T20:41:18.251Z,14.98
2022-10-17T20:44:06.800Z,8.80
2022-10-17T20:47:01.586Z,14.85
2022-10-17T20:49:42.929Z,8.63
2022-10-17T20:52:30.518Z,18.85
2022-10-17T20:55:17.988Z,12.70
2022-10-17T20:58:05.433Z,17.27
2022-10-17T21:00:52.703Z,13.80
2022-10-17T21:03:43.890Z,14.35
2022-10-17T21:06:30.058Z,12.20
2022-10-17T21:09:17.644Z,20.05
2022-10-17T21:12:05.352Z,11.43
2022-10-17T21:14:52.839Z,11.33
2022-10-17T21:17:40.201Z,11.88
2022-10-17T21:20:27.856Z,23.73
2022-10-17T21:23:15.190Z,9.50
2022-10-17T21:26:04.010Z,16.20
2022-10-17T21:28:51.848Z,11.35
2022-10-17T21:31:40.702Z,15.10
2022-10-17T21:34:28.708Z,12.28
2022-10-17T21:37:16.667Z,14.13
2022-10-17T21:40:04.178Z,14.13
2022-10-17T21:42:51.645Z,12.47
2022-10-17T21:45:39.379Z,13.93
2022-10-17T21:48:27.329Z,8.30
2022-10-17T21:51:17.311Z,12.28
2022-10-17T21:54:05.986Z,10.80
2022-10-17T21:56:53.665Z,7.50
2022-10-17T21:59:41.211Z,14.38
2022-10-17T22:02:30.108Z,10.38
2022-10-17T22:05:17.175Z,14.25
2022-10-17T22:08:04.592Z,13.85
2022-10-17T22:10:51.741Z,10.10
2022-10-17T22:13:39.849Z,16.27
2022-10-17T22:16:27.701Z,15.78
2022-10-17T22:19:18.331Z,18.10
2022-10-17T22:22:05.612Z,13.58
2022-10-17T22:24:52.885Z,14.63
2022-10-17T22:27:40.187Z,8.95
2022-10-17T22:30:27.887Z,14.25
2022-10-17T22:33:15.583Z,13.05
2022-10-17T22:36:04.059Z,12.30
2022-10-17T22:38:51.798Z,10.68
2022-10-17T22:41:39.093Z,9.38
2022-10-17T22:44:26.194Z,9.93
2022-10-17T22:47:13.498Z,19.45
2022-10-17T22:50:01.020Z,14.13
2022-10-17T22:52:48.312Z,12.78
2022-10-17T22:55:35.808Z,12.47
2022-10-17T22:58:23.826Z,10.80
2022-10-17T23:01:16.828Z,9.90
2022-10-17T23:04:04.326Z,11.18
2022-10-17T23:06:51.515Z,6.28
2022-10-17T23:09:39.389Z,12.53
2022-10-17T23:12:26.675Z,19.50
2022-10-17T23:15:13.947Z,11.73
2022-10-17T23:18:02.262Z,15.68
2022-10-17T23:20:49.927Z,9.48
2022-10-17T23:23:37.689Z,11.38
2022-10-17T23:26:25.128Z,11.93
2022-10-17T23:29:12.381Z,9.65
2022-10-17T23:32:00.533Z,14.90
2022-10-17T23:34:47.898Z,13.45
2022-10-17T23:37:35.823Z,13.20
2022-10-17T23:40:23.230Z,14.07
2022-10-17T23:43:10.754Z,9.00
2022-10-17T23:45:58.638Z,7.75
2022-10-17T23:48:45.822Z,11.73
2022-10-17T23:51:33.482Z,8.63
2022-10-17T23:54:20.919Z,18.12
2022-10-17T23:57:08.219Z,13.70
2022-10-17T23:59:55.718Z,11.20
